Time;durP1;ratioP1;P1;durP2;ratioP2;P2;SDS_P1;SDS_P2;PMS_P1;PMS_P2;Temp;Humidity;BMP_temperature;BMP_pressure;BME280_temperature;BME280_humidity;BME280_pressure;Samples;Min_cycle;Max_cycle;Signal;HPM_P1;HPM_P2
2023/07/04 00:00:12;;;;;;;0.20;0.20;;;;;;;20.66;64.54;100984.06;5071045;28;20116;-61
2023/07/04 00:02:38;;;;;;;0.10;0.10;;;;;;;20.31;66.52;100984.41;5070825;28;20025;-63
2023/07/04 00:05:03;;;;;;;0.20;0.20;;;;;;;21.28;62.57;100973.03;5071155;28;20032;-63
2023/07/04 00:07:31;;;;;;;0.20;0.20;;;;;;;20.64;64.98;100981.63;5069719;28;20060;-63
2023/07/04 00:09:58;;;;;;;0.10;0.10;;;;;;;20.40;65.62;100978.03;5069747;28;20028;-63
2023/07/04 00:12:24;;;;;;;0.10;0.10;;;;;;;20.56;65.86;100981.47;5064324;28;20365;-63
2023/07/04 00:14:49;;;;;;;0.20;0.20;;;;;;;20.87;64.29;100982.78;5060941;28;20040;-62
2023/07/04 00:17:15;;;;;;;0.20;0.20;;;;;;;20.43;66.35;100973.94;5061329;28;20212;-62
2023/07/04 00:19:40;;;;;;;0.20;0.20;;;;;;;21.15;63.04;100975.66;5060381;28;20937;-63
2023/07/04 00:22:05;;;;;;;0.10;0.10;;;;;;;21.49;61.70;100982.59;5061272;28;20114;-63
2023/07/04 00:24:31;;;;;;;0.20;0.20;;;;;;;20.70;64.54;100985.94;5053063;28;20082;-61
2023/07/04 00:26:57;;;;;;;0.10;0.10;;;;;;;21.05;63.05;100984.78;5063508;28;20087;-61
2023/07/04 00:29:23;;;;;;;0.10;0.10;;;;;;;20.71;64.91;100987.59;5072794;28;20029;-62
2023/07/04 00:31:49;;;;;;;0.10;0.10;;;;;;;20.92;63.59;100986.28;5080960;28;20037;-61
2023/07/04 00:34:14;;;;;;;0.10;0.10;;;;;;;21.60;60.95;100989.53;5056448;28;20033;-64
2023/07/04 00:36:40;;;;;;;0.10;0.10;;;;;;;21.35;62.16;100989.06;5068801;28;20097;-62
2023/07/04 00:39:07;;;;;;;0.10;0.10;;;;;;;20.61;64.03;100984.13;5071158;28;20021;-61
2023/07/04 00:41:33;;;;;;;0.20;0.20;;;;;;;21.14;62.36;100991.25;5071290;28;20119;-62
2023/07/04 00:44:13;;;;;;;0.10;0.10;;;;;;;20.27;65.71;100997.81;5071091;28;20374;-62
2023/07/04 00:46:43;;;;;;;;;;;;;;;21.02;63.10;100998.22;5069037;28;20040;-61
2023/07/04 00:49:20;;;;;;;0.10;0.10;;;;;;;20.64;64.78;100995.28;5070777;28;20349;-61
2023/07/04 00:51:50;;;;;;;0.10;0.10;;;;;;;20.00;67.00;101000.19;5071565;28;20044;-61
2023/07/04 00:54:19;;;;;;;0.10;0.10;;;;;;;20.04;66.78;101001.25;5071091;28;20535;-62
2023/07/04 00:56:44;;;;;;;0.20;0.20;;;;;;;20.34;65.43;101005.69;5070734;28;20039;-61
2023/07/04 00:59:10;;;;;;;0.20;0.20;;;;;;;20.99;62.83;100991.41;5068741;28;20619;-62
2023/07/04 01:01:35;;;;;;;0.10;0.10;;;;;;;21.09;62.26;100990.50;5070837;28;20044;-62
2023/07/04 01:04:03;;;;;;;0.10;0.10;;;;;;;21.26;62.18;100997.13;5071086;28;20036;-62
2023/07/04 01:06:39;;;;;;;0.17;0.17;;;;;;;20.78;62.80;100993.53;5071349;28;20159;-63
2023/07/04 01:09:08;;;;;;;0.10;0.10;;;;;;;20.67;64.01;100996.66;5054793;28;20543;-62
2023/07/04 01:11:45;;;;;;;0.10;0.10;;;;;;;20.77;63.73;100994.63;5067744;28;20041;-62
2023/07/04 01:14:28;;;;;;;0.10;0.10;;;;;;;21.38;62.39;100996.69;5070179;28;20037;-60
2023/07/04 01:16:54;;;;;;;0.10;0.10;;;;;;;20.41;64.90;100993.34;5070168;28;20040;-62
2023/07/04 01:19:25;;;;;;;0.15;0.15;;;;;;;20.48;65.01;100999.25;5070591;28;20041;-61
2023/07/04 01:22:01;;;;;;;0.10;0.10;;;;;;;20.50;64.42;101002.53;5070873;28;20441;-63
2023/07/04 01:24:38;;;;;;;0.20;0.20;;;;;;;20.80;63.96;101013.16;5071099;28;20103;-65
2023/07/04 01:27:04;;;;;;;0.10;0.10;;;;;;;20.99;62.85;101013.25;5064212;28;20057;-64
2023/07/04 01:29:30;;;;;;;0.10;0.10;;;;;;;20.56;65.27;101011.50;5060557;28;20045;-66
2023/07/04 01:31:57;;;;;;;0.15;0.15;;;;;;;21.43;60.96;101005.63;5060851;28;20067;-65
2023/07/04 01:34:22;;;;;;;0.20;0.20;;;;;;;21.03;62.76;101011.56;5070420;28;20546;-65
2023/07/04 01:36:49;;;;;;;0.20;0.20;;;;;;;21.57;61.29;101014.75;5070550;28;20060;-65
2023/07/04 01:39:15;;;;;;;0.20;0.20;;;;;;;21.73;59.93;101024.41;5070369;28;20069;-65
2023/07/04 01:41:41;;;;;;;0.20;0.20;;;;;;;21.96;59.54;101016.44;5070197;28;20041;-64
2023/07/04 01:44:07;;;;;;;0.10;0.10;;;;;;;21.91;59.60;101016.50;5070022;28;20028;-66
2023/07/04 01:46:34;;;;;;;0.10;0.10;;;;;;;21.21;61.74;101015.50;5070313;28;20045;-64
2023/07/04 01:49:00;;;;;;;0.20;0.20;;;;;;;21.41;62.19;101018.78;5069899;28;20036;-66
2023/07/04 01:51:29;;;;;;;0.20;0.20;;;;;;;20.82;64.05;101013.69;5070711;28;20056;-64
2023/07/04 01:53:55;;;;;;;0.10;0.10;;;;;;;21.18;62.62;101002.41;5070079;28;20040;-65
2023/07/04 01:56:20;;;;;;;0.10;0.10;;;;;;;21.29;62.16;101014.84;5070021;28;20039;-64
2023/07/04 01:58:46;;;;;;;0.20;0.20;;;;;;;20.95;64.21;101014.94;5069981;28;20044;-66
2023/07/04 02:01:11;;;;;;;0.10;0.10;;;;;;;20.78;64.58;101009.09;5069953;28;20040;-66
2023/07/04 02:03:37;;;;;;;0.10;0.10;;;;;;;21.10;63.84;101024.91;5070808;28;20031;-65
2023/07/04 02:06:02;;;;;;;0.17;0.17;;;;;;;20.80;64.55;101015.06;5070205;28;20373;-66
2023/07/04 02:08:28;;;;;;;0.17;0.17;;;;;;;21.37;62.37;101019.66;5069906;28;20090;-64
2023/07/04 02:10:53;;;;;;;0.10;0.10;;;;;;;21.29;62.51;101012.91;5069276;28;20036;-66
2023/07/04 02:13:18;;;;;;;0.20;0.20;;;;;;;20.77;64.62;101008.28;5052199;28;20047;-65
2023/07/04 02:15:44;;;;;;;0.10;0.10;;;;;;;21.30;63.04;100995.44;5070481;28;20094;-66
2023/07/04 02:18:09;;;;;;;0.10;0.10;;;;;;;21.17;63.56;101004.31;5085043;28;20047;-66
2023/07/04 02:20:35;;;;;;;0.20;0.20;;;;;;;20.89;64.88;100999.69;5069939;28;20055;-66
2023/07/04 02:23:00;;;;;;;0.10;0.10;;;;;;;21.00;63.93;101001.22;5077279;28;20032;-65
2023/07/04 02:25:26;;;;;;;0.17;0.17;;;;;;;21.83;61.03;100993.38;5070005;28;20060;-64
2023/07/04 02:27:51;;;;;;;0.10;0.10;;;;;;;21.51;61.66;100998.69;5089530;28;20039;-64
2023/07/04 02:30:17;;;;;;;0.10;0.10;;;;;;;21.80;60.89;100997.50;5074062;28;20615;-64
2023/07/04 02:32:42;;;;;;;0.15;0.15;;;;;;;21.42;62.66;101005.94;5073232;28;20036;-64
2023/07/04 02:35:08;;;;;;;0.10;0.10;;;;;;;21.21;62.66;101004.56;5073527;28;20431;-65
2023/07/04 02:37:33;;;;;;;0.10;0.10;;;;;;;20.90;64.20;101017.72;5073445;28;20028;-64
2023/07/04 02:39:59;;;;;;;0.10;0.10;;;;;;;21.26;62.82;101007.22;5073265;28;20033;-65
2023/07/04 02:42:24;;;;;;;0.20;0.20;;;;;;;20.82;65.27;101007.41;5073588;28;20044;-65
2023/07/04 02:44:50;;;;;;;0.10;0.10;;;;;;;20.98;63.97;101006.97;5073000;28;20044;-65
2023/07/04 02:47:16;;;;;;;0.10;0.10;;;;;;;21.19;62.23;101004.06;5072893;28;20024;-64
2023/07/04 02:49:41;;;;;;;0.30;0.30;;;;;;;21.91;60.19;101000.91;5073088;28;20097;-65
2023/07/04 02:52:07;;;;;;;0.10;0.10;;;;;;;21.79;60.41;101014.19;5073202;28;20107;-64
2023/07/04 02:54:32;;;;;;;0.15;0.15;;;;;;;22.05;59.75;101010.00;5073948;28;20020;-63
2023/07/04 02:56:59;;;;;;;0.10;0.10;;;;;;;21.38;61.42;101008.47;5072871;28;20630;-66
2023/07/04 02:59:24;;;;;;;0.10;0.10;;;;;;;22.14;59.65;101012.88;5072772;28;20529;-66
2023/07/04 03:01:51;;;;;;;0.17;0.17;;;;;;;22.15;59.70;100998.88;5072843;28;20036;-65
2023/07/04 03:04:16;;;;;;;0.10;0.10;;;;;;;21.86;59.76;101003.72;5073000;28;20169;-63
2023/07/04 03:06:42;;;;;;;0.15;0.15;;;;;;;21.79;59.78;101001.34;5073566;28;20484;-65
2023/07/04 03:09:07;;;;;;;0.10;0.10;;;;;;;21.67;60.08;101011.06;5072995;28;20064;-65
2023/07/04 03:11:32;;;;;;;0.10;0.10;;;;;;;21.51;60.18;101004.16;5072575;28;20039;-64
2023/07/04 03:13:58;;;;;;;0.13;0.13;;;;;;;21.37;61.13;101009.53;5054804;28;20090;-66
2023/07/04 03:16:23;;;;;;;0.10;0.10;;;;;;;20.95;62.04;101009.47;5072704;28;20035;-65
2023/07/04 03:18:49;;;;;;;0.20;0.20;;;;;;;21.79;59.68;101009.53;5072979;28;20035;-65
2023/07/04 03:21:14;;;;;;;0.10;0.10;;;;;;;21.13;61.73;101013.41;5072488;28;20459;-66
2023/07/04 03:23:40;;;;;;;0.20;0.20;;;;;;;21.06;61.96;101013.75;5072805;28;20047;-67
2023/07/04 03:26:06;;;;;;;0.10;0.10;;;;;;;20.71;63.44;101012.19;5065757;28;20041;-66
2023/07/04 03:28:31;;;;;;;0.10;0.10;;;;;;;20.92;62.61;101019.06;5068353;28;20068;-64
2023/07/04 03:30:57;;;;;;;0.10;0.10;;;;;;;21.20;61.99;101019.31;5055814;28;20020;-64
2023/07/04 03:33:22;;;;;;;0.10;0.10;;;;;;;21.53;60.02;101010.16;5072822;28;20020;-64
2023/07/04 03:35:48;;;;;;;0.20;0.20;;;;;;;21.11;61.30;101013.69;5062734;28;20036;-66
2023/07/04 03:38:14;;;;;;;0.10;0.10;;;;;;;20.23;64.82;101015.03;5064993;28;20417;-65
2023/07/04 03:40:39;;;;;;;0.10;0.10;;;;;;;20.67;62.41;101023.94;5048531;28;20172;-65
2023/07/04 03:43:04;;;;;;;0.20;0.20;;;;;;;20.77;62.99;101027.41;5033959;28;20021;-66
2023/07/04 03:45:30;;;;;;;0.15;0.15;;;;;;;21.14;61.55;101017.75;5052855;28;20036;-65
2023/07/04 03:47:55;;;;;;;0.20;0.20;;;;;;;21.50;59.96;101029.91;5051925;28;20041;-66
2023/07/04 03:50:21;;;;;;;0.10;0.10;;;;;;;21.13;60.92;101025.13;5051801;28;20048;-65
2023/07/04 03:52:46;;;;;;;0.20;0.20;;;;;;;20.45;64.13;101034.53;5052321;28;20547;-63
2023/07/04 03:55:12;;;;;;;0.10;0.10;;;;;;;20.69;62.84;101028.03;5051853;28;20471;-65
2023/07/04 03:57:37;;;;;;;0.10;0.10;;;;;;;20.86;61.90;101030.31;5034448;28;20033;-64
2023/07/04 04:00:06;;;;;;;0.20;0.20;;;;;;;20.96;61.58;101027.47;5051898;28;20076;-64
2023/07/04 04:02:31;;;;;;;0.20;0.20;;;;;;;20.13;63.97;101026.81;5042285;28;20048;-64
2023/07/04 04:04:56;;;;;;;0.10;0.10;;;;;;;20.40;63.81;101032.63;5044211;28;20036;-66
2023/07/04 04:07:23;;;;;;;0.10;0.10;;;;;;;21.16;60.37;101026.47;5038035;28;20056;-65
2023/07/04 04:09:49;;;;;;;0.10;0.10;;;;;;;20.50;62.87;101040.75;5047925;28;20021;-66
2023/07/04 04:12:15;;;;;;;0.20;0.20;;;;;;;20.89;60.96;101046.94;5051388;28;20103;-67
2023/07/04 04:14:40;;;;;;;0.20;0.20;;;;;;;20.28;62.80;101045.03;5052336;28;20033;-65
2023/07/04 04:17:06;;;;;;;0.20;0.20;;;;;;;20.54;61.96;101030.09;5052222;28;20084;-66
2023/07/04 04:19:32;;;;;;;0.10;0.10;;;;;;;21.14;60.27;101034.16;5051340;28;20044;-65
2023/07/04 04:21:57;;;;;;;0.10;0.10;;;;;;;20.94;60.92;101040.63;5051555;28;20035;-65
2023/07/04 04:24:23;;;;;;;0.15;0.15;;;;;;;21.39;59.15;101044.78;5052351;28;20408;-65
2023/07/04 04:26:48;;;;;;;0.10;0.10;;;;;;;20.79;60.55;101038.88;5064109;28;20049;-65
2023/07/04 04:29:17;;;;;;;0.20;0.20;;;;;;;20.25;63.04;101048.31;5051330;28;20090;-66
2023/07/04 04:31:44;;;;;;;0.20;0.20;;;;;;;20.55;62.45;101050.81;5051307;28;20079;-66
2023/07/04 04:34:11;;;;;;;0.10;0.10;;;;;;;21.35;59.96;101049.22;5058342;28;20708;-66
2023/07/04 04:36:37;;;;;;;0.10;0.10;;;;;;;20.91;60.42;101050.19;5051757;28;20013;-65
2023/07/04 04:39:02;;;;;;;0.10;0.10;;;;;;;21.39;58.88;101044.78;5051688;28;20362;-65
2023/07/04 04:41:29;;;;;;;0.10;0.10;;;;;;;20.98;59.75;101045.22;5032461;28;20655;-66
2023/07/04 04:43:56;;;;;;;0.10;0.10;;;;;;;20.76;60.81;101050.34;5050646;28;20045;-65
2023/07/04 04:46:22;;;;;;;0.20;0.20;;;;;;;20.71;60.87;101057.78;5051161;28;20021;-66
2023/07/04 04:48:47;;;;;;;0.20;0.20;;;;;;;20.62;61.25;101063.03;5050478;28;20385;-66
2023/07/04 04:51:13;;;;;;;0.20;0.20;;;;;;;21.40;58.22;101057.38;5050525;28;20040;-66
2023/07/04 04:53:41;;;;;;;0.10;0.10;;;;;;;20.47;61.62;101065.91;5051446;28;20033;-65
2023/07/04 04:56:10;;;;;;;0.10;0.10;;;;;;;20.70;60.70;101065.16;5050878;28;20032;-63
2023/07/04 04:58:36;;;;;;;0.10;0.10;;;;;;;20.81;60.72;101066.69;5050728;28;20040;-64
2023/07/04 05:01:11;;;;;;;0.20;0.20;;;;;;;21.11;59.52;101062.06;5051053;28;20059;-66
2023/07/04 05:03:36;;;;;;;0.20;0.20;;;;;;;21.31;58.02;101059.91;5051587;28;20636;-65
2023/07/04 05:06:03;;;;;;;0.10;0.10;;;;;;;22.02;56.50;101065.31;5050796;28;20044;-65
2023/07/04 05:08:28;;;;;;;0.10;0.10;;;;;;;21.22;58.19;101069.06;5050965;28;20062;-66
2023/07/04 05:11:04;;;;;;;0.10;0.10;;;;;;;21.50;58.28;101068.97;5051499;28;20032;-64
2023/07/04 05:13:30;;;;;;;0.10;0.10;;;;;;;20.81;59.27;101065.91;5038007;28;20576;-64
2023/07/04 05:16:03;;;;;;;0.10;0.10;;;;;;;21.76;57.13;101058.53;5050668;28;20021;-64
2023/07/04 05:18:28;;;;;;;0.20;0.20;;;;;;;21.69;57.10;101060.84;5050469;28;20037;-64
2023/07/04 05:21:00;;;;;;;0.10;0.10;;;;;;;21.25;58.56;101065.72;5049165;28;20718;-65
2023/07/04 05:23:25;;;;;;;0.20;0.20;;;;;;;21.02;58.39;101066.53;5050502;28;20091;-63
2023/07/04 05:26:09;;;;;;;0.10;0.10;;;;;;;21.50;57.42;101068.97;5062925;28;20509;-65
2023/07/04 05:28:35;;;;;;;0.20;0.20;;;;;;;20.89;58.27;101070.72;5054233;28;20045;-62
2023/07/04 05:31:13;;;;;;;0.20;0.20;;;;;;;21.51;57.93;101072.53;5034165;28;20037;-67
2023/07/04 05:33:39;;;;;;;0.20;0.20;;;;;;;22.00;55.67;101069.47;5021810;28;20048;-64
2023/07/04 05:36:12;;;;;;;0.10;0.10;;;;;;;22.26;54.81;101079.75;5049854;28;20448;-64
2023/07/04 05:38:39;;;;;;;0.10;0.10;;;;;;;21.93;55.37;101086.28;5049902;28;20060;-64
2023/07/04 05:41:13;;;;;;;0.10;0.10;;;;;;;21.59;56.80;101082.84;5050164;28;20033;-66
2023/07/04 05:43:40;;;;;;;0.10;0.10;;;;;;;21.41;57.71;101080.84;5050307;28;20437;-65
2023/07/04 05:46:07;;;;;;;0.20;0.20;;;;;;;21.31;58.33;101080.97;5050281;28;20146;-64
2023/07/04 05:48:36;;;;;;;0.20;0.20;;;;;;;21.47;56.82;101077.78;5050320;28;20522;-65
2023/07/04 05:51:04;;;;;;;0.20;0.20;;;;;;;21.78;56.21;101084.50;5033665;28;20033;-66
2023/07/04 05:53:32;;;;;;;0.20;0.20;;;;;;;21.81;56.78;101080.41;5050435;28;20037;-65
2023/07/04 05:56:08;;;;;;;0.20;0.20;;;;;;;21.79;56.49;101083.41;5050072;28;20123;-66
2023/07/04 05:58:38;;;;;;;0.20;0.20;;;;;;;21.51;57.57;101081.56;5049846;28;20041;-66
2023/07/04 06:01:09;;;;;;;0.10;0.10;;;;;;;21.16;58.68;101092.06;5051135;28;20024;-65
2023/07/04 06:03:35;;;;;;;0.10;0.10;;;;;;;20.97;57.89;101086.50;5045882;28;20024;-66
2023/07/04 06:06:03;;;;;;;0.20;0.20;;;;;;;21.39;58.26;101094.00;5050733;28;20576;-67
2023/07/04 06:08:28;;;;;;;0.10;0.10;;;;;;;21.81;56.68;101097.66;5053407;28;20041;-65
2023/07/04 06:11:04;;;;;;;0.20;0.20;;;;;;;21.99;55.78;101089.75;5052625;28;20048;-65
2023/07/04 06:13:30;;;;;;;0.10;0.10;;;;;;;21.74;57.06;101105.34;5053595;28;20055;-66
2023/07/04 06:15:56;;;;;;;0.20;0.20;;;;;;;21.28;57.44;101109.72;5057015;28;20021;-66
2023/07/04 06:18:22;;;;;;;0.10;0.10;;;;;;;21.33;57.39;101111.56;5061286;28;20064;-66
2023/07/04 06:20:48;;;;;;;0.15;0.15;;;;;;;21.06;57.88;101111.31;5053160;28;20060;-66
2023/07/04 06:23:14;;;;;;;0.20;0.20;;;;;;;21.52;56.33;101113.25;5053406;28;20041;-66
2023/07/04 06:25:39;;;;;;;0.20;0.20;;;;;;;22.66;53.52;101108.47;5058290;28;20057;-66
2023/07/04 06:28:04;;;;;;;0.10;0.10;;;;;;;22.00;55.24;101113.25;5060963;28;20158;-66
2023/07/04 06:30:34;;;;;;;0.10;0.10;;;;;;;22.84;53.07;101107.59;5053938;28;20029;-66
2023/07/04 06:32:59;;;;;;;0.10;0.10;;;;;;;21.80;55.79;101117.03;5053230;28;20033;-67
2023/07/04 06:35:24;;;;;;;0.10;0.10;;;;;;;22.39;54.78;101124.75;5053272;28;20032;-65
2023/07/04 06:37:50;;;;;;;0.10;0.10;;;;;;;22.98;53.38;101124.09;5035099;28;20029;-66
2023/07/04 06:40:18;;;;;;;0.17;0.17;;;;;;;22.39;55.20;101135.69;5053382;28;20029;-67
2023/07/04 06:42:43;;;;;;;0.10;0.10;;;;;;;23.46;52.04;101139.16;5053021;28;20036;-67
2023/07/04 06:45:08;;;;;;;0.10;0.10;;;;;;;23.11;52.23;101128.81;5052751;28;20033;-65
2023/07/04 06:47:34;;;;;;;0.10;0.10;;;;;;;23.39;51.86;101130.50;5052925;28;20046;-67
2023/07/04 06:49:59;;;;;;;0.10;0.10;;;;;;;23.39;51.44;101133.25;5052725;28;20052;-67
2023/07/04 06:52:24;;;;;;;0.10;0.10;;;;;;;22.87;52.71;101134.44;5064583;28;20428;-65
2023/07/04 06:54:51;;;;;;;0.10;0.10;;;;;;;23.23;51.42;101145.59;5054620;28;20033;-65
2023/07/04 06:57:17;;;;;;;0.10;0.10;;;;;;;22.59;52.49;101132.69;5053414;28;20104;-66
2023/07/04 06:59:45;;;;;;;0.20;0.20;;;;;;;22.97;51.70;101138.94;5052911;28;20121;-66
2023/07/04 07:02:12;;;;;;;0.10;0.10;;;;;;;22.82;51.65;101139.97;5046620;28;20033;-64
2023/07/04 07:04:38;;;;;;;0.15;0.15;;;;;;;22.08;53.43;101154.47;5048996;28;20036;-65
2023/07/04 07:07:05;;;;;;;0.10;0.10;;;;;;;22.36;52.58;101148.06;5051478;28;20697;-66
2023/07/04 07:09:38;;;;;;;0.10;0.10;;;;;;;23.07;50.77;101149.72;5051590;28;20040;-63
2023/07/04 07:12:03;;;;;;;0.10;0.10;;;;;;;22.66;50.83;101146.84;5049322;28;20117;-66
2023/07/04 07:14:29;;;;;;;0.08;0.08;;;;;;;23.30;50.45;101155.06;5051017;28;20620;-64
2023/07/04 07:16:56;;;;;;;0.10;0.10;;;;;;;22.49;52.44;101154.72;5051056;28;20096;-65
2023/07/04 07:19:23;;;;;;;0.10;0.10;;;;;;;23.13;50.40;101149.34;5050592;28;20442;-64
2023/07/04 07:21:48;;;;;;;0.10;0.10;;;;;;;23.07;50.49;101161.50;5051354;28;20560;-65
2023/07/04 07:24:14;;;;;;;0.10;0.10;;;;;;;22.78;49.34;101162.81;5050918;28;20032;-64
2023/07/04 07:26:39;;;;;;;0.10;0.10;;;;;;;23.06;49.38;101161.78;5062440;28;20105;-64
2023/07/04 07:29:04;;;;;;;0.10;0.10;;;;;;;23.78;47.75;101158.28;5070913;28;20051;-65
2023/07/04 07:31:30;;;;;;;0.00;0.00;;;;;;;24.35;46.79;101160.34;5071752;28;20032;-64
2023/07/04 07:33:55;;;;;;;0.10;0.10;;;;;;;23.76;46.58;101159.72;5070597;28;20724;-66
2023/07/04 07:36:24;;;;;;;0.10;0.10;;;;;;;23.76;46.08;101163.28;5053215;28;20504;-65
2023/07/04 07:38:52;;;;;;;0.10;0.10;;;;;;;22.92;48.38;101169.19;5070463;28;20028;-66
2023/07/04 07:41:19;;;;;;;0.10;0.10;;;;;;;23.34;47.11;101166.25;5070492;28;20062;-66
2023/07/04 07:43:45;;;;;;;0.10;0.10;;;;;;;24.65;44.88;101158.06;5051980;28;20037;-64
2023/07/04 07:46:13;;;;;;;0.10;0.10;;;;;;;23.59;46.32;101168.53;5070560;28;20036;-64
2023/07/04 07:48:39;;;;;;;0.00;0.00;;;;;;;24.27;45.13;101174.03;5064312;28;20601;-64
2023/07/04 07:51:07;;;;;;;0.10;0.10;;;;;;;23.68;45.67;101174.94;5065393;28;20055;-64
2023/07/04 07:53:35;;;;;;;0.05;0.05;;;;;;;23.12;47.01;101177.03;5069683;28;20035;-67
2023/07/04 07:56:00;;;;;;;0.00;0.00;;;;;;;23.42;45.96;101182.03;5070043;28;20028;-63
2023/07/04 07:58:25;;;;;;;0.10;0.10;;;;;;;24.61;44.11;101179.81;5070430;28;20577;-65
2023/07/04 08:00:51;;;;;;;0.08;0.08;;;;;;;23.49;45.79;101187.91;5064756;28;20813;-66
2023/07/04 08:03:16;;;;;;;0.00;0.00;;;;;;;24.65;43.68;101185.53;5070640;28;20021;-66
2023/07/04 08:05:42;;;;;;;0.10;0.10;;;;;;;23.96;45.42;101182.06;5069920;28;20054;-66
2023/07/04 08:08:09;;;;;;;0.10;0.10;;;;;;;24.40;43.98;101195.16;5070088;28;20028;-66
2023/07/04 08:10:35;;;;;;;0.05;0.05;;;;;;;23.46;46.27;101186.63;5069989;28;20534;-66
2023/07/04 08:13:01;;;;;;;0.00;0.00;;;;;;;23.03;47.75;101173.38;5069813;28;20017;-64
2023/07/04 08:15:26;;;;;;;0.10;0.10;;;;;;;23.48;47.96;101176.16;5070992;28;20024;-65
2023/07/04 08:17:52;;;;;;;0.10;0.10;;;;;;;23.43;47.10;101178.97;5066868;28;20419;-66
2023/07/04 08:20:17;;;;;;;0.10;0.10;;;;;;;23.57;47.20;101178.19;5060416;28;20047;-67
2023/07/04 08:22:42;;;;;;;0.00;0.00;;;;;;;24.00;46.59;101183.06;5069690;28;20719;-66
2023/07/04 08:25:08;;;;;;;0.00;0.00;;;;;;;22.63;49.29;101188.50;5069502;28;20016;-66
2023/07/04 08:27:33;;;;;;;0.00;0.00;;;;;;;22.24;51.90;101196.97;5069652;28;20033;-66
2023/07/04 08:30:02;;;;;;;0.10;0.10;;;;;;;22.43;52.77;101183.28;5068998;28;20045;-66
2023/07/04 08:32:29;;;;;;;0.10;0.10;;;;;;;21.61;54.00;101190.84;5068652;28;20682;-66
2023/07/04 08:34:54;;;;;;;0.10;0.10;;;;;;;22.16;52.36;101191.34;5069436;28;20024;-66
2023/07/04 08:37:19;;;;;;;0.10;0.10;;;;;;;21.78;51.50;101176.69;5062357;28;20509;-65
2023/07/04 08:39:46;;;;;;;0.10;0.10;;;;;;;22.06;52.05;101177.78;5070021;28;20028;-65
2023/07/04 08:42:14;;;;;;;0.20;0.20;;;;;;;22.74;50.33;101178.22;5068860;28;20064;-67
2023/07/04 08:44:44;;;;;;;0.10;0.10;;;;;;;21.45;52.19;101192.13;5067575;28;20048;-66
2023/07/04 08:47:28;;;;;;;0.10;0.10;;;;;;;21.45;51.36;101199.50;5051151;28;20036;-66
2023/07/04 08:50:01;;;;;;;0.10;0.10;;;;;;;21.03;51.92;101202.88;5068928;28;20036;-65
2023/07/04 08:52:35;;;;;;;0.10;0.10;;;;;;;21.25;54.41;101211.44;5072531;28;20032;-66
2023/07/04 08:55:01;;;;;;;0.13;0.13;;;;;;;21.98;52.40;101223.03;5069372;28;20036;-65
2023/07/04 08:57:39;;;;;;;0.10;0.10;;;;;;;21.92;53.83;101226.94;5075693;28;20073;-66
2023/07/04 09:00:44;;;;;;;0.10;0.10;;;;;;;21.35;54.75;101238.69;5078371;28;20059;-66
2023/07/04 09:03:16;;;;;;;0.20;0.20;;;;;;;21.24;56.06;101237.16;5025691;28;20029;-64
2023/07/04 09:05:49;;;;;;;0.10;0.10;;;;;;;22.59;53.27;101234.06;5028104;28;20773;-65
2023/07/04 09:08:40;;;;;;;0.10;0.10;;;;;;;22.09;54.68;101227.31;5026810;28;20098;-65
2023/07/04 09:11:09;;;;;;;0.10;0.10;;;;;;;21.72;55.12;101238.88;5027816;28;20041;-65
2023/07/04 09:16:56;;;;;;;0.10;0.10;;;;;;;22.16;54.20;101238.69;5008952;23;20126;-64
2023/07/04 09:19:22;;;;;;;0.10;0.10;;;;;;;23.21;51.84;101241.84;5009829;28;20038;-66
2023/07/04 09:21:47;;;;;;;0.10;0.10;;;;;;;22.33;53.51;101239.03;5012635;28;20025;-66
2023/07/04 09:24:14;;;;;;;0.10;0.10;;;;;;;22.75;53.07;101237.38;5019805;28;20866;-67
2023/07/04 09:26:44;;;;;;;0.10;0.10;;;;;;;22.35;54.05;101246.94;5010266;28;20113;-67
2023/07/04 09:29:12;;;;;;;0.10;0.10;;;;;;;23.62;51.43;101247.50;5008818;28;20037;-66
2023/07/04 09:31:41;;;;;;;0.10;0.10;;;;;;;23.71;51.53;101256.66;5008604;28;20432;-65
2023/07/04 09:34:32;;;;;;;0.10;0.10;;;;;;;22.53;55.10;101273.53;5006721;28;20026;-67
2023/07/04 09:37:00;;;;;;;0.15;0.15;;;;;;;22.58;55.75;101262.56;5007688;28;20116;-66
2023/07/04 09:39:51;;;;;;;0.10;0.10;;;;;;;23.21;54.62;101249.28;5009233;28;20144;-65
2023/07/04 09:42:18;;;;;;;0.10;0.10;;;;;;;23.39;54.05;101253.94;5007945;28;20038;-66
2023/07/04 09:44:45;;;;;;;0.10;0.10;;;;;;;22.25;55.00;101258.03;5006681;28;20033;-65
2023/07/04 09:47:22;;;;;;;0.15;0.15;;;;;;;22.80;53.88;101257.31;5008232;28;20026;-65
2023/07/04 09:49:48;;;;;;;0.10;0.10;;;;;;;22.21;54.73;101254.25;5005807;28;20489;-66
2023/07/04 09:52:13;;;;;;;0.10;0.10;;;;;;;23.55;52.88;101250.63;5008042;28;20026;-64
2023/07/04 09:54:40;;;;;;;0.10;0.10;;;;;;;23.29;54.21;101263.13;4991159;28;20073;-66
2023/07/04 09:57:27;;;;;;;0.10;0.10;;;;;;;24.33;51.55;101246.97;5008436;28;20026;-66
2023/07/04 09:59:53;;;;;;;0.10;0.10;;;;;;;24.24;51.23;101254.28;5007839;28;20034;-64
2023/07/04 10:02:26;;;;;;;0.10;0.10;;;;;;;24.53;51.63;101253.97;5008977;28;20449;-65
2023/07/04 10:04:52;;;;;;;0.10;0.10;;;;;;;24.69;50.38;101255.25;5008010;28;20042;-66
2023/07/04 10:07:22;;;;;;;0.10;0.10;;;;;;;24.36;50.74;101249.91;5009245;28;20152;-64
2023/07/04 10:09:52;;;;;;;0.00;0.00;;;;;;;25.26;49.48;101249.78;5003991;28;20502;-61
2023/07/04 10:12:18;;;;;;;0.10;0.10;;;;;;;24.48;50.38;101243.91;5008430;28;20141;-66
2023/07/04 10:14:49;;;;;;;0.10;0.10;;;;;;;23.81;52.15;101248.25;5008143;28;20061;-64
2023/07/04 10:17:21;;;;;;;0.03;0.03;;;;;;;24.38;51.46;101249.59;5007684;28;20088;-65
2023/07/04 10:19:50;;;;;;;0.10;0.10;;;;;;;24.11;51.85;101258.69;5008047;28;20041;-64
2023/07/04 10:22:39;;;;;;;0.10;0.10;;;;;;;24.76;50.04;101259.25;5007722;28;20034;-65
2023/07/04 10:25:11;;;;;;;0.10;0.10;;;;;;;24.08;51.95;101266.69;5006528;28;20108;-64
2023/07/04 10:27:40;;;;;;;0.00;0.00;;;;;;;24.17;52.25;101268.44;5011448;28;20022;-65
2023/07/04 10:30:12;;;;;;;0.05;0.05;;;;;;;23.79;52.49;101277.09;5007544;28;20585;-65
2023/07/04 10:32:49;;;;;;;0.00;0.00;;;;;;;23.21;54.77;101276.72;5007485;28;20034;-64
2023/07/04 10:35:19;;;;;;;0.10;0.10;;;;;;;23.34;54.15;101279.53;4979002;28;20038;-67
2023/07/04 10:37:47;;;;;;;;;;;;;;;23.73;52.42;101281.88;5012720;28;20049;-66
2023/07/04 10:40:14;;;;;;;0.10;0.10;;;;;;;23.56;52.88;101287.13;5009051;28;19924;-66
2023/07/04 10:42:55;;;;;;;0.10;0.10;;;;;;;23.59;53.08;101293.97;5002542;28;20058;-67
2023/07/04 10:45:23;;;;;;;0.10;0.10;;;;;;;24.70;50.24;101301.69;5004834;28;20096;-65
2023/07/04 10:47:54;;;;;;;0.10;0.10;;;;;;;24.06;50.71;101296.38;5002957;28;20116;-65
2023/07/04 10:50:22;;;;;;;0.00;0.00;;;;;;;23.29;52.50;101297.97;5008332;28;20045;-65
2023/07/04 10:52:50;;;;;;;0.00;0.00;;;;;;;23.87;51.18;101293.72;5003149;28;20039;-65
2023/07/04 10:55:48;;;;;;;0.10;0.10;;;;;;;24.53;49.14;101300.69;4997512;28;20044;-66
2023/07/04 10:58:20;;;;;;;0.08;0.08;;;;;;;23.50;53.01;101299.31;5004957;28;20040;-65
2023/07/04 11:00:53;;;;;;;0.10;0.10;;;;;;;24.66;48.86;101299.84;4995572;28;20038;-67
2023/07/04 11:03:27;;;;;;;0.00;0.00;;;;;;;23.60;50.79;101309.28;4990456;28;20052;-66
2023/07/04 11:05:55;;;;;;;0.00;0.00;;;;;;;24.55;49.16;101296.50;4994490;28;20126;-66
2023/07/04 11:08:25;;;;;;;0.00;0.00;;;;;;;24.50;47.37;101302.09;5008090;28;20099;-67
2023/07/04 11:10:58;;;;;;;0.00;0.00;;;;;;;23.31;47.95;101299.31;5007530;28;20038;-65
2023/07/04 11:13:24;;;;;;;0.00;0.00;;;;;;;23.50;48.60;101296.56;5007641;28;20129;-66
2023/07/04 11:15:57;;;;;;;0.10;0.10;;;;;;;24.05;47.20;101297.53;4993501;28;20047;-67
2023/07/04 11:18:27;;;;;;;0.00;0.00;;;;;;;24.14;46.92;101299.25;5005345;28;20129;-61
2023/07/04 11:21:08;;;;;;;0.10;0.10;;;;;;;24.61;44.67;101306.25;4995045;28;20396;-66
2023/07/04 11:23:51;;;;;;;0.05;0.05;;;;;;;25.29;42.95;101303.38;5004295;28;20050;-67
2023/07/04 11:26:19;;;;;;;0.10;0.10;;;;;;;24.83;43.77;101303.63;5015719;28;20039;-66
2023/07/04 11:29:04;;;;;;;0.10;0.10;;;;;;;24.91;42.90;101294.63;5006971;28;20074;-66
2023/07/04 11:31:34;;;;;;;0.03;0.03;;;;;;;25.16;41.94;101305.03;4999162;28;20502;-66
2023/07/04 11:34:03;;;;;;;0.00;0.00;;;;;;;25.35;42.22;101304.06;4991718;28;20497;-66